sensor_id;sensor_type;location;lat;lon;timestamp;temperature;humidity
20081;DHT22;10200;49.232;9.222;2023-11-19T00:01:55;8.90;99.90
20081;DHT22;10200;49.232;9.222;2023-11-19T00:04:22;9.00;99.90
20081;DHT22;10200;49.232;9.222;2023-11-19T00:06:48;8.90;99.90
20081;DHT22;10200;49.232;9.222;2023-11-19T00:09:13;9.00;99.90
20081;DHT22;10200;49.232;9.222;2023-11-19T00:11:40;8.90;99.90
20081;DHT22;10200;49.232;9.222;2023-11-19T00:14:06;9.00;99.90
20081;DHT22;10200;49.232;9.222;2023-11-19T00:16:34;9.00;99.90
20081;DHT22;10200;49.232;9.222;2023-11-19T00:19:00;9.00;99.90
20081;DHT22;10200;49.232;9.222;2023-11-19T00:21:25;8.90;99.90
20081;DHT22;10200;49.232;9.222;2023-11-19T00:23:54;9.00;99.90
20081;DHT22;10200;49.232;9.222;2023-11-19T00:26:19;8.90;99.90
20081;DHT22;10200;49.232;9.222;2023-11-19T00:28:45;8.90;99.90
20081;DHT22;10200;49.232;9.222;2023-11-19T00:31:13;8.90;99.90
20081;DHT22;10200;49.232;9.222;2023-11-19T00:33:38;8.90;99.90
20081;DHT22;10200;49.232;9.222;2023-11-19T00:36:05;8.90;99.90
20081;DHT22;10200;49.232;9.222;2023-11-19T00:38:30;8.90;99.90
20081;DHT22;10200;49.232;9.222;2023-11-19T00:40:56;8.90;99.90
20081;DHT22;10200;49.232;9.222;2023-11-19T00:43:22;8.90;99.90
20081;DHT22;10200;49.232;9.222;2023-11-19T00:45:47;8.90;99.90
20081;DHT22;10200;49.232;9.222;2023-11-19T00:48:16;8.90;99.90
20081;DHT22;10200;49.232;9.222;2023-11-19T00:50:42;8.90;99.90
20081;DHT22;10200;49.232;9.222;2023-11-19T00:53:09;8.80;99.90
20081;DHT22;10200;49.232;9.222;2023-11-19T00:55:35;8.80;99.90
20081;DHT22;10200;49.232;9.222;2023-11-19T00:58:00;8.80;99.90
20081;DHT22;10200;49.232;9.222;2023-11-19T01:00:26;8.80;99.90
20081;DHT22;10200;49.232;9.222;2023-11-19T01:02:52;8.80;99.90
20081;DHT22;10200;49.232;9.222;2023-11-19T01:05:19;8.80;99.90
20081;DHT22;10200;49.232;9.222;2023-11-19T01:07:48;8.80;99.90
20081;DHT22;10200;49.232;9.222;2023-11-19T01:10:14;8.80;99.90
20081;DHT22;10200;49.232;9.222;2023-11-19T01:12:41;8.90;99.90
20081;DHT22;10200;49.232;9.222;2023-11-19T01:15:08;8.90;99.90
20081;DHT22;10200;49.232;9.222;2023-11-19T01:17:33;8.90;99.90
20081;DHT22;10200;49.232;9.222;2023-11-19T01:19:59;8.90;99.90
20081;DHT22;10200;49.232;9.222;2023-11-19T01:22:25;8.90;99.90
20081;DHT22;10200;49.232;9.222;2023-11-19T01:24:51;8.90;99.90
20081;DHT22;10200;49.232;9.222;2023-11-19T01:27:17;8.90;99.90
20081;DHT22;10200;49.232;9.222;2023-11-19T01:29:43;9.00;99.90
20081;DHT22;10200;49.232;9.222;2023-11-19T01:32:08;9.00;99.90
20081;DHT22;10200;49.232;9.222;2023-11-19T01:34:34;9.00;99.90
20081;DHT22;10200;49.232;9.222;2023-11-19T01:37:01;9.00;99.90
20081;DHT22;10200;49.232;9.222;2023-11-19T01:39:26;9.00;99.90
20081;DHT22;10200;49.232;9.222;2023-11-19T01:41:52;9.00;99.90
20081;DHT22;10200;49.232;9.222;2023-11-19T01:44:19;9.00;99.90
20081;DHT22;10200;49.232;9.222;2023-11-19T01:46:46;9.00;99.90
20081;DHT22;10200;49.232;9.222;2023-11-19T01:49:16;9.00;99.90
20081;DHT22;10200;49.232;9.222;2023-11-19T01:51:43;8.90;99.90
20081;DHT22;10200;49.232;9.222;2023-11-19T01:54:09;8.90;99.90
20081;DHT22;10200;49.232;9.222;2023-11-19T01:56:35;8.90;99.90
20081;DHT22;10200;49.232;9.222;2023-11-19T01:59:02;9.00;99.90
20081;DHT22;10200;49.232;9.222;2023-11-19T02:01:29;8.90;99.90
20081;DHT22;10200;49.232;9.222;2023-11-19T02:03:55;8.90;99.90
20081;DHT22;10200;49.232;9.222;2023-11-19T02:06:21;8.90;99.90
20081;DHT22;10200;49.232;9.222;2023-11-19T02:08:46;8.90;99.90
20081;DHT22;10200;49.232;9.222;2023-11-19T02:11:12;8.90;99.90
20081;DHT22;10200;49.232;9.222;2023-11-19T02:13:38;8.90;99.90
20081;DHT22;10200;49.232;9.222;2023-11-19T02:16:07;8.90;99.90
20081;DHT22;10200;49.232;9.222;2023-11-19T02:18:34;8.90;99.90
20081;DHT22;10200;49.232;9.222;2023-11-19T02:21:00;8.90;99.90
20081;DHT22;10200;49.232;9.222;2023-11-19T02:23:27;8.90;99.90
20081;DHT22;10200;49.232;9.222;2023-11-19T02:28:24;8.90;99.90
20081;DHT22;10200;49.232;9.222;2023-11-19T02:30:50;9.00;99.90
20081;DHT22;10200;49.232;9.222;2023-11-19T02:33:15;9.00;99.90
20081;DHT22;10200;49.232;9.222;2023-11-19T02:35:41;8.90;99.90
20081;DHT22;10200;49.232;9.222;2023-11-19T02:38:07;8.90;99.90
20081;DHT22;10200;49.232;9.222;2023-11-19T02:40:33;8.90;99.90
20081;DHT22;10200;49.232;9.222;2023-11-19T02:42:59;9.00;99.90
20081;DHT22;10200;49.232;9.222;2023-11-19T02:45:25;8.90;99.90
20081;DHT22;10200;49.232;9.222;2023-11-19T02:47:52;8.90;99.90
20081;DHT22;10200;49.232;9.222;2023-11-19T02:50:19;8.90;99.90
20081;DHT22;10200;49.232;9.222;2023-11-19T02:52:51;9.00;99.90
20081;DHT22;10200;49.232;9.222;2023-11-19T02:55:17;9.00;99.90
20081;DHT22;10200;49.232;9.222;2023-11-19T02:57:43;9.00;99.90
20081;DHT22;10200;49.232;9.222;2023-11-19T03:00:20;9.00;99.90
20081;DHT22;10200;49.232;9.222;2023-11-19T03:02:50;9.00;99.90
20081;DHT22;10200;49.232;9.222;2023-11-19T03:05:26;8.90;99.90
20081;DHT22;10200;49.232;9.222;2023-11-19T03:07:52;8.90;99.90
20081;DHT22;10200;49.232;9.222;2023-11-19T03:10:18;8.90;99.90
20081;DHT22;10200;49.232;9.222;2023-11-19T03:12:44;8.90;99.90
20081;DHT22;10200;49.232;9.222;2023-11-19T03:15:10;8.90;99.90
20081;DHT22;10200;49.232;9.222;2023-11-19T03:17:38;9.00;99.90
20081;DHT22;10200;49.232;9.222;2023-11-19T03:20:09;9.00;99.90
20081;DHT22;10200;49.232;9.222;2023-11-19T03:22:36;9.10;99.90
20081;DHT22;10200;49.232;9.222;2023-11-19T03:25:03;9.00;99.90
20081;DHT22;10200;49.232;9.222;2023-11-19T03:27:29;9.10;99.90
20081;DHT22;10200;49.232;9.222;2023-11-19T03:29:54;9.10;99.90
20081;DHT22;10200;49.232;9.222;2023-11-19T03:32:20;9.10;99.90
20081;DHT22;10200;49.232;9.222;2023-11-19T03:34:46;9.10;99.90
20081;DHT22;10200;49.232;9.222;2023-11-19T03:37:11;9.10;99.90
20081;DHT22;10200;49.232;9.222;2023-11-19T03:39:38;9.20;99.90
20081;DHT22;10200;49.232;9.222;2023-11-19T03:42:03;9.20;99.90
20081;DHT22;10200;49.232;9.222;2023-11-19T03:44:29;9.20;99.90
20081;DHT22;10200;49.232;9.222;2023-11-19T03:46:55;9.20;99.90
20081;DHT22;10200;49.232;9.222;2023-11-19T03:49:20;9.20;99.90
20081;DHT22;10200;49.232;9.222;2023-11-19T03:51:46;9.20;99.90
20081;DHT22;10200;49.232;9.222;2023-11-19T03:54:12;9.20;99.90
20081;DHT22;10200;49.232;9.222;2023-11-19T03:56:37;9.20;99.90
20081;DHT22;10200;49.232;9.222;2023-11-19T03:59:03;9.20;99.90
20081;DHT22;10200;49.232;9.222;2023-11-19T04:01:29;9.20;99.90
20081;DHT22;10200;49.232;9.222;2023-11-19T04:03:54;9.20;99.90
20081;DHT22;10200;49.232;9.222;2023-11-19T04:06:21;9.20;99.90
20081;DHT22;10200;49.232;9.222;2023-11-19T04:08:47;9.20;99.90
20081;DHT22;10200;49.232;9.222;2023-11-19T04:11:12;9.20;99.90
20081;DHT22;10200;49.232;9.222;2023-11-19T04:13:38;9.20;99.90
20081;DHT22;10200;49.232;9.222;2023-11-19T04:16:04;9.20;99.90
20081;DHT22;10200;49.232;9.222;2023-11-19T04:18:30;9.20;99.90
20081;DHT22;10200;49.232;9.222;2023-11-19T04:20:57;9.20;99.90
20081;DHT22;10200;49.232;9.222;2023-11-19T04:23:23;9.30;99.90
20081;DHT22;10200;49.232;9.222;2023-11-19T04:25:50;9.30;99.90
20081;DHT22;10200;49.232;9.222;2023-11-19T04:28:15;9.30;99.90
20081;DHT22;10200;49.232;9.222;2023-11-19T04:30:41;9.40;99.90
20081;DHT22;10200;49.232;9.222;2023-11-19T04:33:07;9.30;99.90
20081;DHT22;10200;49.232;9.222;2023-11-19T04:35:32;9.30;99.90
20081;DHT22;10200;49.232;9.222;2023-11-19T04:37:58;9.30;99.90
20081;DHT22;10200;49.232;9.222;2023-11-19T04:40:23;9.30;99.90
20081;DHT22;10200;49.232;9.222;2023-11-19T04:42:49;9.30;99.90
20081;DHT22;10200;49.232;9.222;2023-11-19T04:45:15;9.30;99.90
20081;DHT22;10200;49.232;9.222;2023-11-19T04:47:42;9.30;99.90
20081;DHT22;10200;49.232;9.222;2023-11-19T04:50:07;9.30;99.90
20081;DHT22;10200;49.232;9.222;2023-11-19T04:52:40;9.40;99.90
20081;DHT22;10200;49.232;9.222;2023-11-19T04:55:06;9.40;99.90
20081;DHT22;10200;49.232;9.222;2023-11-19T04:57:32;9.40;99.90
20081;DHT22;10200;49.232;9.222;2023-11-19T04:59:58;9.40;99.90
20081;DHT22;10200;49.232;9.222;2023-11-19T05:02:24;9.40;99.90
20081;DHT22;10200;49.232;9.222;2023-11-19T05:04:49;9.50;99.90
20081;DHT22;10200;49.232;9.222;2023-11-19T05:07:15;9.50;99.90
20081;DHT22;10200;49.232;9.222;2023-11-19T05:09:40;9.60;99.90
20081;DHT22;10200;49.232;9.222;2023-11-19T05:12:06;9.70;99.90
20081;DHT22;10200;49.232;9.222;2023-11-19T05:14:35;9.70;99.90
20081;DHT22;10200;49.232;9.222;2023-11-19T05:17:01;9.80;99.90
20081;DHT22;10200;49.232;9.222;2023-11-19T05:19:26;9.80;99.90
20081;DHT22;10200;49.232;9.222;2023-11-19T05:21:52;9.90;99.90
20081;DHT22;10200;49.232;9.222;2023-11-19T05:24:18;9.90;99.90
20081;DHT22;10200;49.232;9.222;2023-11-19T05:26:43;10.00;99.90
20081;DHT22;10200;49.232;9.222;2023-11-19T05:29:09;10.10;99.90
20081;DHT22;10200;49.232;9.222;2023-11-19T05:31:34;10.20;99.90
20081;DHT22;10200;49.232;9.222;2023-11-19T05:34:00;10.30;99.90
20081;DHT22;10200;49.232;9.222;2023-11-19T05:36:25;10.50;99.90
20081;DHT22;10200;49.232;9.222;2023-11-19T05:38:51;10.60;99.90
20081;DHT22;10200;49.232;9.222;2023-11-19T05:41:16;10.70;99.90
20081;DHT22;10200;49.232;9.222;2023-11-19T05:43:42;10.90;99.90
20081;DHT22;10200;49.232;9.222;2023-11-19T05:46:08;11.00;99.90
20081;DHT22;10200;49.232;9.222;2023-11-19T05:48:34;11.00;99.90
20081;DHT22;10200;49.232;9.222;2023-11-19T05:51:00;11.10;99.90
20081;DHT22;10200;49.232;9.222;2023-11-19T05:53:25;11.10;99.90
20081;DHT22;10200;49.232;9.222;2023-11-19T05:55:51;11.20;99.90
20081;DHT22;10200;49.232;9.222;2023-11-19T05:58:24;11.20;99.90
20081;DHT22;10200;49.232;9.222;2023-11-19T06:00:51;11.30;99.90
20081;DHT22;10200;49.232;9.222;2023-11-19T06:03:17;11.30;99.90
20081;DHT22;10200;49.232;9.222;2023-11-19T06:05:45;11.40;99.90
20081;DHT22;10200;49.232;9.222;2023-11-19T06:08:11;11.40;99.90
20081;DHT22;10200;49.232;9.222;2023-11-19T06:10:39;11.40;99.90
20081;DHT22;10200;49.232;9.222;2023-11-19T06:13:05;11.50;99.90
20081;DHT22;10200;49.232;9.222;2023-11-19T06:15:32;11.50;99.90
20081;DHT22;10200;49.232;9.222;2023-11-19T06:17:58;11.60;99.90
20081;DHT22;10200;49.232;9.222;2023-11-19T06:20:29;11.60;99.90
20081;DHT22;10200;49.232;9.222;2023-11-19T06:22:55;11.60;99.90
20081;DHT22;10200;49.232;9.222;2023-11-19T06:25:22;11.60;99.90
20081;DHT22;10200;49.232;9.222;2023-11-19T06:27:49;11.60;99.90
20081;DHT22;10200;49.232;9.222;2023-11-19T06:30:18;11.70;99.90
20081;DHT22;10200;49.232;9.222;2023-11-19T06:32:44;11.60;99.90
20081;DHT22;10200;49.232;9.222;2023-11-19T06:35:09;11.70;99.90
20081;DHT22;10200;49.232;9.222;2023-11-19T06:37:36;11.70;99.90
20081;DHT22;10200;49.232;9.222;2023-11-19T06:40:04;11.70;99.90
20081;DHT22;10200;49.232;9.222;2023-11-19T06:42:30;11.70;99.90
20081;DHT22;10200;49.232;9.222;2023-11-19T06:44:55;11.70;99.90
20081;DHT22;10200;49.232;9.222;2023-11-19T06:47:26;11.70;99.90
20081;DHT22;10200;49.232;9.222;2023-11-19T06:49:52;11.70;99.90
20081;DHT22;10200;49.232;9.222;2023-11-19T06:52:18;11.70;99.90
20081;DHT22;10200;49.232;9.222;2023-11-19T06:54:44;11.80;99.90
20081;DHT22;10200;49.232;9.222;2023-11-19T06:57:11;11.80;99.90
20081;DHT22;10200;49.232;9.222;2023-11-19T06:59:37;11.80;99.90
20081;DHT22;10200;49.232;9.222;2023-11-19T07:02:03;11.80;99.90
20081;DHT22;10200;49.232;9.222;2023-11-19T07:04:30;11.90;99.90
20081;DHT22;10200;49.232;9.222;2023-11-19T07:06:55;11.90;99.90
20081;DHT22;10200;49.232;9.222;2023-11-19T07:09:21;12.00;99.90
20081;DHT22;10200;49.232;9.222;2023-11-19T07:11:49;12.00;99.90
20081;DHT22;10200;49.232;9.222;2023-11-19T07:14:15;12.10;99.90
20081;DHT22;10200;49.232;9.222;2023-11-19T07:16:42;12.00;99.90
20081;DHT22;10200;49.232;9.222;2023-11-19T07:19:08;12.10;99.90
20081;DHT22;10200;49.232;9.222;2023-11-19T07:21:34;12.10;99.90
20081;DHT22;10200;49.232;9.222;2023-11-19T07:23:59;12.20;99.90
20081;DHT22;10200;49.232;9.222;2023-11-19T07:26:25;12.20;99.90
20081;DHT22;10200;49.232;9.222;2023-11-19T07:28:52;12.20;99.90
20081;DHT22;10200;49.232;9.222;2023-11-19T07:31:17;12.20;99.90
20081;DHT22;10200;49.232;9.222;2023-11-19T07:33:46;12.30;99.90
20081;DHT22;10200;49.232;9.222;2023-11-19T07:36:13;12.30;99.90
20081;DHT22;10200;49.232;9.222;2023-11-19T07:38:39;12.40;99.90
20081;DHT22;10200;49.232;9.222;2023-11-19T07:41:05;12.40;99.90
20081;DHT22;10200;49.232;9.222;2023-11-19T07:43:32;12.50;99.90
20081;DHT22;10200;49.232;9.222;2023-11-19T07:45:57;12.50;99.90
20081;DHT22;10200;49.232;9.222;2023-11-19T07:48:25;12.50;99.90
20081;DHT22;10200;49.232;9.222;2023-11-19T07:50:52;12.50;99.90
20081;DHT22;10200;49.232;9.222;2023-11-19T07:53:19;12.50;99.90
20081;DHT22;10200;49.232;9.222;2023-11-19T07:55:45;12.60;99.90
20081;DHT22;10200;49.232;9.222;2023-11-19T07:58:11;12.60;99.90
20081;DHT22;10200;49.232;9.222;2023-11-19T08:00:37;12.60;99.90
20081;DHT22;10200;49.232;9.222;2023-11-19T08:03:03;12.60;99.90
20081;DHT22;10200;49.232;9.222;2023-11-19T08:05:29;12.60;99.90
20081;DHT22;10200;49.232;9.222;2023-11-19T08:07:55;12.60;99.90
20081;DHT22;10200;49.232;9.222;2023-11-19T08:10:21;12.70;99.90
20081;DHT22;10200;49.232;9.222;2023-11-19T08:12:46;12.70;99.90
20081;DHT22;10200;49.232;9.222;2023-11-19T08:15:12;12.70;99.90
20081;DHT22;10200;49.232;9.222;2023-11-19T08:17:38;12.70;99.90
20081;DHT22;10200;49.232;9.222;2023-11-19T08:20:04;12.70;99.90
20081;DHT22;10200;49.232;9.222;2023-11-19T08:22:30;12.70;99.90
20081;DHT22;10200;49.232;9.222;2023-11-19T08:24:56;12.70;99.90
20081;DHT22;10200;49.232;9.222;2023-11-19T08:27:22;12.70;99.90
20081;DHT22;10200;49.232;9.222;2023-11-19T08:29:54;12.80;99.90
20081;DHT22;10200;49.232;9.222;2023-11-19T08:32:25;12.80;99.90
20081;DHT22;10200;49.232;9.222;2023-11-19T08:34:51;12.80;99.90
20081;DHT22;10200;49.232;9.222;2023-11-19T08:37:17;12.90;99.90
20081;DHT22;10200;49.232;9.222;2023-11-19T08:39:49;12.90;99.90
20081;DHT22;10200;49.232;9.222;2023-11-19T08:42:15;13.10;99.90
20081;DHT22;10200;49.232;9.222;2023-11-19T08:44:41;13.30;99.90
20081;DHT22;10200;49.232;9.222;2023-11-19T08:47:12;13.40;99.90
20081;DHT22;10200;49.232;9.222;2023-11-19T08:49:38;13.60;99.90
20081;DHT22;10200;49.232;9.222;2023-11-19T08:52:04;13.50;99.90
20081;DHT22;10200;49.232;9.222;2023-11-19T08:54:30;13.40;99.90
20081;DHT22;10200;49.232;9.222;2023-11-19T08:56:56;13.50;99.90
20081;DHT22;10200;49.232;9.222;2023-11-19T08:59:21;13.50;99.90
20081;DHT22;10200;49.232;9.222;2023-11-19T09:01:47;13.60;99.90
20081;DHT22;10200;49.232;9.222;2023-11-19T09:04:12;13.60;99.90
20081;DHT22;10200;49.232;9.222;2023-11-19T09:06:39;13.70;99.90
20081;DHT22;10200;49.232;9.222;2023-11-19T09:09:05;13.80;99.90
20081;DHT22;10200;49.232;9.222;2023-11-19T09:13:57;14.10;99.90
20081;DHT22;10200;49.232;9.222;2023-11-19T09:16:23;14.30;99.90
20081;DHT22;10200;49.232;9.222;2023-11-19T09:18:49;14.40;99.90
20081;DHT22;10200;49.232;9.222;2023-11-19T09:21:15;14.50;99.90
20081;DHT22;10200;49.232;9.222;2023-11-19T09:23:41;14.50;99.90
20081;DHT22;10200;49.232;9.222;2023-11-19T09:26:08;14.60;99.90
20081;DHT22;10200;49.232;9.222;2023-11-19T09:28:34;14.60;99.90
20081;DHT22;10200;49.232;9.222;2023-11-19T09:30:59;14.70;99.90
20081;DHT22;10200;49.232;9.222;2023-11-19T09:33:25;14.70;99.90
20081;DHT22;10200;49.232;9.222;2023-11-19T09:35:51;14.70;99.90
20081;DHT22;10200;49.232;9.222;2023-11-19T09:38:17;14.70;99.90
20081;DHT22;10200;49.232;9.222;2023-11-19T09:40:43;14.70;99.90
20081;DHT22;10200;49.232;9.222;2023-11-19T09:43:09;14.80;99.90
20081;DHT22;10200;49.232;9.222;2023-11-19T09:45:49;14.80;99.90
20081;DHT22;10200;49.232;9.222;2023-11-19T09:48:18;14.80;99.90
20081;DHT22;10200;49.232;9.222;2023-11-19T09:50:48;14.80;99.90
20081;DHT22;10200;49.232;9.222;2023-11-19T09:53:14;14.90;99.90
20081;DHT22;10200;49.232;9.222;2023-11-19T09:55:41;14.80;99.90
20081;DHT22;10200;49.232;9.222;2023-11-19T09:58:07;14.80;99.90
20081;DHT22;10200;49.232;9.222;2023-11-19T10:00:33;14.80;99.90
20081;DHT22;10200;49.232;9.222;2023-11-19T10:03:00;14.70;99.90
20081;DHT22;10200;49.232;9.222;2023-11-19T10:05:26;14.70;99.90
20081;DHT22;10200;49.232;9.222;2023-11-19T10:07:55;14.60;99.90
20081;DHT22;10200;49.232;9.222;2023-11-19T10:10:21;14.70;99.90
20081;DHT22;10200;49.232;9.222;2023-11-19T10:12:47;14.80;99.90
20081;DHT22;10200;49.232;9.222;2023-11-19T10:15:20;14.80;99.90
20081;DHT22;10200;49.232;9.222;2023-11-19T10:17:47;14.90;99.90
20081;DHT22;10200;49.232;9.222;2023-11-19T10:20:13;15.00;99.90
20081;DHT22;10200;49.232;9.222;2023-11-19T10:22:39;15.00;99.90
20081;DHT22;10200;49.232;9.222;2023-11-19T10:25:10;15.00;99.90
20081;DHT22;10200;49.232;9.222;2023-11-19T10:27:47;15.10;99.90
20081;DHT22;10200;49.232;9.222;2023-11-19T10:30:17;15.10;99.90
20081;DHT22;10200;49.232;9.222;2023-11-19T10:32:42;15.10;99.90
20081;DHT22;10200;49.232;9.222;2023-11-19T10:35:08;15.10;99.90
20081;DHT22;10200;49.232;9.222;2023-11-19T10:37:34;15.10;99.90
20081;DHT22;10200;49.232;9.222;2023-11-19T10:40:02;15.20;99.90
20081;DHT22;10200;49.232;9.222;2023-11-19T10:42:30;15.20;99.90
20081;DHT22;10200;49.232;9.222;2023-11-19T10:44:56;15.20;99.90
20081;DHT22;10200;49.232;9.222;2023-11-19T10:47:23;15.20;99.90
20081;DHT22;10200;49.232;9.222;2023-11-19T10:49:49;15.20;99.90
20081;DHT22;10200;49.232;9.222;2023-11-19T10:52:18;15.10;99.90
20081;DHT22;10200;49.232;9.222;2023-11-19T10:54:50;15.10;99.90
20081;DHT22;10200;49.232;9.222;2023-11-19T10:57:20;15.20;99.90
20081;DHT22;10200;49.232;9.222;2023-11-19T10:59:47;15.20;99.90
20081;DHT22;10200;49.232;9.222;2023-11-19T11:02:18;15.10;99.90
20081;DHT22;10200;49.232;9.222;2023-11-19T11:04:47;15.10;99.90
20081;DHT22;10200;49.232;9.222;2023-11-19T11:07:15;15.10;99.90
20081;DHT22;10200;49.232;9.222;2023-11-19T11:09:44;15.10;99.90
20081;DHT22;10200;49.232;9.222;2023-11-19T11:12:12;15.20;99.90
20081;DHT22;10200;49.232;9.222;2023-11-19T11:14:38;15.20;99.90
20081;DHT22;10200;49.232;9.222;2023-11-19T11:17:08;15.20;99.90
20081;DHT22;10200;49.232;9.222;2023-11-19T11:19:36;15.30;99.90
20081;DHT22;10200;49.232;9.222;2023-11-19T11:22:02;15.20;99.90
20081;DHT22;10200;49.232;9.222;2023-11-19T11:24:53;15.30;99.90
20081;DHT22;10200;49.232;9.222;2023-11-19T11:27:48;15.30;99.90
20081;DHT22;10200;49.232;9.222;2023-11-19T11:31:02;15.30;99.90
20081;DHT22;10200;49.232;9.222;2023-11-19T11:36:19;15.30;99.90
20081;DHT22;10200;49.232;9.222;2023-11-19T11:38:48;15.30;99.90
20081;DHT22;10200;49.232;9.222;2023-11-19T11:41:24;15.30;99.90
20081;DHT22;10200;49.232;9.222;2023-11-19T11:43:52;15.30;99.90
20081;DHT22;10200;49.232;9.222;2023-11-19T11:49:08;15.40;99.90
20081;DHT22;10200;49.232;9.222;2023-11-19T11:59:45;15.30;99.90
20081;DHT22;10200;49.232;9.222;2023-11-19T12:02:13;15.40;99.90
20081;DHT22;10200;49.232;9.222;2023-11-19T12:04:40;15.40;99.90
20081;DHT22;10200;49.232;9.222;2023-11-19T12:07:26;15.40;99.90
20081;DHT22;10200;49.232;9.222;2023-11-19T12:09:53;15.40;99.90
20081;DHT22;10200;49.232;9.222;2023-11-19T12:12:31;15.40;99.90
20081;DHT22;10200;49.232;9.222;2023-11-19T12:20:08;15.50;99.90
20081;DHT22;10200;49.232;9.222;2023-11-19T12:22:40;15.50;99.90
20081;DHT22;10200;49.232;9.222;2023-11-19T12:25:07;15.50;99.90
20081;DHT22;10200;49.232;9.222;2023-11-19T12:27:37;15.50;99.90
20081;DHT22;10200;49.232;9.222;2023-11-19T12:30:05;15.50;99.90
20081;DHT22;10200;49.232;9.222;2023-11-19T12:32:44;15.40;99.90
20081;DHT22;10200;49.232;9.222;2023-11-19T12:35:11;15.40;99.90
20081;DHT22;10200;49.232;9.222;2023-11-19T12:40:17;15.60;99.90
20081;DHT22;10200;49.232;9.222;2023-11-19T12:42:47;15.50;99.90
20081;DHT22;10200;49.232;9.222;2023-11-19T12:45:13;15.50;99.90
20081;DHT22;10200;49.232;9.222;2023-11-19T12:47:40;15.60;99.90
20081;DHT22;10200;49.232;9.222;2023-11-19T12:50:06;15.50;99.90
20081;DHT22;10200;49.232;9.222;2023-11-19T12:52:36;15.50;99.90
20081;DHT22;10200;49.232;9.222;2023-11-19T12:55:23;15.50;99.90
20081;DHT22;10200;49.232;9.222;2023-11-19T12:57:49;15.50;99.90
20081;DHT22;10200;49.232;9.222;2023-11-19T13:00:25;15.50;99.90
20081;DHT22;10200;49.232;9.222;2023-11-19T13:02:55;15.50;99.90
20081;DHT22;10200;49.232;9.222;2023-11-19T13:05:31;15.60;99.90
20081;DHT22;10200;49.232;9.222;2023-11-19T13:08:08;15.60;99.90
20081;DHT22;10200;49.232;9.222;2023-11-19T13:10:54;15.60;99.90
20081;DHT22;10200;49.232;9.222;2023-11-19T13:13:19;15.60;99.90
20081;DHT22;10200;49.232;9.222;2023-11-19T13:15:45;15.60;99.90
20081;DHT22;10200;49.232;9.222;2023-11-19T13:18:11;15.60;99.90
20081;DHT22;10200;49.232;9.222;2023-11-19T13:20:37;15.60;99.90
20081;DHT22;10200;49.232;9.222;2023-11-19T13:23:05;15.60;99.90
20081;DHT22;10200;49.232;9.222;2023-11-19T13:25:32;15.60;99.90
20081;DHT22;10200;49.232;9.222;2023-11-19T13:27:58;15.60;99.90
20081;DHT22;10200;49.232;9.222;2023-11-19T13:30:24;15.60;99.90
20081;DHT22;10200;49.232;9.222;2023-11-19T13:32:51;15.50;99.90
20081;DHT22;10200;49.232;9.222;2023-11-19T13:35:17;15.50;99.90
20081;DHT22;10200;49.232;9.222;2023-11-19T13:37:44;15.50;99.90
20081;DHT22;10200;49.232;9.222;2023-11-19T13:40:10;15.50;99.90
20081;DHT22;10200;49.232;9.222;2023-11-19T13:42:39;15.50;99.90
20081;DHT22;10200;49.232;9.222;2023-11-19T13:45:11;15.50;99.90
20081;DHT22;10200;49.232;9.222;2023-11-19T13:47:45;15.50;99.90
20081;DHT22;10200;49.232;9.222;2023-11-19T13:50:12;15.50;99.90
20081;DHT22;10200;49.232;9.222;2023-11-19T13:52:39;15.40;99.90
20081;DHT22;10200;49.232;9.222;2023-11-19T13:55:07;15.50;99.90
20081;DHT22;10200;49.232;9.222;2023-11-19T13:57:34;15.40;99.90
20081;DHT22;10200;49.232;9.222;2023-11-19T14:00:01;15.40;99.90
20081;DHT22;10200;49.232;9.222;2023-11-19T14:02:28;15.50;99.90
20081;DHT22;10200;49.232;9.222;2023-11-19T14:04:54;15.40;99.90
20081;DHT22;10200;49.232;9.222;2023-11-19T14:07:21;15.40;99.90
20081;DHT22;10200;49.232;9.222;2023-11-19T14:09:47;15.40;99.90
20081;DHT22;10200;49.232;9.222;2023-11-19T14:12:12;15.40;99.90
20081;DHT22;10200;49.232;9.222;2023-11-19T14:14:38;15.30;99.90
20081;DHT22;10200;49.232;9.222;2023-11-19T14:17:05;15.30;99.90
20081;DHT22;10200;49.232;9.222;2023-11-19T14:19:30;15.30;99.90
20081;DHT22;10200;49.232;9.222;2023-11-19T14:21:56;15.30;99.90
20081;DHT22;10200;49.232;9.222;2023-11-19T14:24:21;15.20;99.90
20081;DHT22;10200;49.232;9.222;2023-11-19T14:26:47;15.10;99.90
20081;DHT22;10200;49.232;9.222;2023-11-19T14:29:14;15.10;99.90
20081;DHT22;10200;49.232;9.222;2023-11-19T14:31:40;15.00;99.90
20081;DHT22;10200;49.232;9.222;2023-11-19T14:34:09;14.90;99.90
20081;DHT22;10200;49.232;9.222;2023-11-19T14:36:34;14.80;99.90
20081;DHT22;10200;49.232;9.222;2023-11-19T14:39:00;14.80;99.90
20081;DHT22;10200;49.232;9.222;2023-11-19T14:41:26;14.70;99.90
20081;DHT22;10200;49.232;9.222;2023-11-19T14:43:52;14.70;99.90
20081;DHT22;10200;49.232;9.222;2023-11-19T14:46:17;14.60;99.90
20081;DHT22;10200;49.232;9.222;2023-11-19T14:48:43;14.60;99.90
20081;DHT22;10200;49.232;9.222;2023-11-19T14:51:09;14.50;99.90
20081;DHT22;10200;49.232;9.222;2023-11-19T14:53:35;14.40;99.90
20081;DHT22;10200;49.232;9.222;2023-11-19T14:56:01;14.40;99.90
20081;DHT22;10200;49.232;9.222;2023-11-19T14:58:26;14.40;99.90
20081;DHT22;10200;49.232;9.222;2023-11-19T15:00:52;14.30;99.90
20081;DHT22;10200;49.232;9.222;2023-11-19T15:03:18;14.30;99.90
20081;DHT22;10200;49.232;9.222;2023-11-19T15:05:47;14.30;99.90
20081;DHT22;10200;49.232;9.222;2023-11-19T15:08:13;14.30;99.90
20081;DHT22;10200;49.232;9.222;2023-11-19T15:10:42;14.30;99.90
20081;DHT22;10200;49.232;9.222;2023-11-19T15:13:08;14.20;99.90
20081;DHT22;10200;49.232;9.222;2023-11-19T15:15:34;14.10;99.90
20081;DHT22;10200;49.232;9.222;2023-11-19T15:18:00;14.10;99.90
20081;DHT22;10200;49.232;9.222;2023-11-19T15:20:26;14.10;99.90
20081;DHT22;10200;49.232;9.222;2023-11-19T15:22:59;14.00;99.90
20081;DHT22;10200;49.232;9.222;2023-11-19T15:25:25;14.00;99.90
20081;DHT22;10200;49.232;9.222;2023-11-19T15:27:50;14.00;99.90
20081;DHT22;10200;49.232;9.222;2023-11-19T15:30:21;14.00;99.90
20081;DHT22;10200;49.232;9.222;2023-11-19T15:32:46;13.90;99.90
20081;DHT22;10200;49.232;9.222;2023-11-19T15:35:12;14.00;99.90
20081;DHT22;10200;49.232;9.222;2023-11-19T15:37:38;13.90;99.90
20081;DHT22;10200;49.232;9.222;2023-11-19T15:40:10;13.90;99.90
20081;DHT22;10200;49.232;9.222;2023-11-19T15:42:38;13.90;99.90
20081;DHT22;10200;49.232;9.222;2023-11-19T15:45:06;13.90;99.90
20081;DHT22;10200;49.232;9.222;2023-11-19T15:47:34;13.90;99.90
20081;DHT22;10200;49.232;9.222;2023-11-19T15:50:03;13.90;99.90
20081;DHT22;10200;49.232;9.222;2023-11-19T15:52:31;13.90;99.90
20081;DHT22;10200;49.232;9.222;2023-11-19T15:54:57;13.90;99.90
20081;DHT22;10200;49.232;9.222;2023-11-19T15:57:23;13.90;99.90
20081;DHT22;10200;49.232;9.222;2023-11-19T15:59:49;14.00;99.90
20081;DHT22;10200;49.232;9.222;2023-11-19T16:02:14;13.90;99.90